createdAt,value
2022-07-27T00:04:31.768Z,1.20
2022-07-27T00:09:36.600Z,1.52
2022-07-27T00:14:40.312Z,1.33
2022-07-27T00:19:45.411Z,1.73
2022-07-27T00:24:49.166Z,1.50
2022-07-27T00:29:52.853Z,1.45
2022-07-27T00:34:57.923Z,1.75
2022-07-27T00:40:02.392Z,2.12
2022-07-27T00:45:07.405Z,2.03
2022-07-27T00:50:12.829Z,1.60
2022-07-27T00:55:16.919Z,1.70
2022-07-27T01:00:21.358Z,1.42
2022-07-27T01:05:36.160Z,1.50
2022-07-27T01:10:42.943Z,1.85
2022-07-27T01:15:46.677Z,2.08
2022-07-27T01:20:51.852Z,1.92
2022-07-27T01:25:57.013Z,1.92
2022-07-27T01:31:00.873Z,1.85
2022-07-27T01:36:05.191Z,1.50
2022-07-27T01:41:10.239Z,1.80
2022-07-27T01:46:14.033Z,1.90
2022-07-27T01:51:17.871Z,1.58
2022-07-27T01:56:22.995Z,1.62
2022-07-27T02:01:27.051Z,1.80
2022-07-27T02:06:30.829Z,2.00
2022-07-27T02:11:53.465Z,1.65
2022-07-27T02:16:57.267Z,1.50
2022-07-27T02:22:02.558Z,1.77
2022-07-27T02:27:07.667Z,1.65
2022-07-27T02:32:11.428Z,1.58
2022-07-27T02:37:15.168Z,1.48
2022-07-27T02:42:20.318Z,2.05
2022-07-27T02:47:24.031Z,2.00
2022-07-27T02:52:27.737Z,2.10
2022-07-27T02:57:34.391Z,1.87
2022-07-27T03:02:39.754Z,1.77
2022-07-27T03:07:43.459Z,1.60
2022-07-27T03:12:48.532Z,2.08
2022-07-27T03:17:52.462Z,2.60
2022-07-27T03:22:56.289Z,2.05
2022-07-27T03:28:04.256Z,1.90
2022-07-27T03:33:08.527Z,2.45
2022-07-27T03:38:12.242Z,2.00
2022-07-27T03:43:17.280Z,2.15
2022-07-27T03:48:20.996Z,2.35
2022-07-27T03:53:24.764Z,2.12
2022-07-27T03:58:29.877Z,1.83
2022-07-27T04:03:33.580Z,1.85
2022-07-27T04:08:37.276Z,1.77
2022-07-27T04:13:44.345Z,1.52
2022-07-27T04:23:57.072Z,2.05
2022-07-27T04:29:02.141Z,1.70
2022-07-27T04:34:05.907Z,1.73
2022-07-27T04:39:10.013Z,2.60
2022-07-27T04:44:15.322Z,2.50
2022-07-27T04:49:19.068Z,1.90
2022-07-27T04:54:22.834Z,1.90
2022-07-27T04:59:28.052Z,2.15
2022-07-27T05:04:31.933Z,2.33
2022-07-27T05:09:35.711Z,2.42
2022-07-27T05:14:40.768Z,2.30
2022-07-27T05:19:44.512Z,2.12
2022-07-27T05:24:48.241Z,2.42
2022-07-27T05:29:53.310Z,2.17
2022-07-27T05:34:57.045Z,2.37
2022-07-27T05:40:00.757Z,2.08
2022-07-27T05:45:06.716Z,2.12
2022-07-27T05:50:11.211Z,1.70
2022-07-27T05:55:15.024Z,2.08
2022-07-27T06:00:20.165Z,2.47
2022-07-27T06:05:23.908Z,1.83
2022-07-27T06:10:28.579Z,1.50
2022-07-27T06:15:34.531Z,1.62
2022-07-27T06:20:38.385Z,1.48
2022-07-27T06:25:42.118Z,5.22
2022-07-27T06:30:47.556Z,1.12
2022-07-27T06:35:51.269Z,0.93
2022-07-27T06:40:56.665Z,1.12
2022-07-27T06:46:03.222Z,1.10
2022-07-27T06:51:07.273Z,1.50
2022-07-27T06:56:10.983Z,1.10
2022-07-27T07:01:16.861Z,1.75
2022-07-27T07:06:20.661Z,1.80
2022-07-27T07:11:24.409Z,1.48
2022-07-27T07:16:29.561Z,1.37
2022-07-27T07:21:33.447Z,2.00
2022-07-27T07:26:37.703Z,1.17
2022-07-27T07:31:42.953Z,1.35
2022-07-27T07:36:47.859Z,1.00
2022-07-27T07:41:52.797Z,1.23
2022-07-27T07:46:57.893Z,1.40
2022-07-27T07:52:02.187Z,1.20
2022-07-27T07:57:06.194Z,1.10
2022-07-27T08:02:11.260Z,0.90
2022-07-27T08:07:14.960Z,1.35
2022-07-27T08:12:18.736Z,1.30
2022-07-27T08:17:24.088Z,1.27
2022-07-27T08:22:28.069Z,1.30
2022-07-27T08:27:40.122Z,0.85
2022-07-27T08:32:54.972Z,1.10
2022-07-27T08:37:59.252Z,1.15
2022-07-27T08:43:05.054Z,1.02
2022-07-27T08:48:13.968Z,1.08
2022-07-27T08:53:18.414Z,0.95
2022-07-27T08:58:22.193Z,1.23
2022-07-27T09:03:27.277Z,1.52
2022-07-27T09:08:31.699Z,1.08
2022-07-27T09:13:35.851Z,1.30
2022-07-27T09:18:41.337Z,1.10
2022-07-27T09:23:48.235Z,1.40
2022-07-27T09:28:55.209Z,1.25
2022-07-27T09:34:02.101Z,1.00
2022-07-27T09:39:06.961Z,1.08
2022-07-27T09:44:31.365Z,1.20
2022-07-27T09:49:36.855Z,1.17
2022-07-27T09:54:45.311Z,1.25
2022-07-27T09:59:49.120Z,0.90
2022-07-27T10:04:55.051Z,0.68
2022-07-27T10:09:59.246Z,1.05
2022-07-27T10:15:02.990Z,1.10
2022-07-27T10:20:11.213Z,1.12
2022-07-27T10:30:24.052Z,1.05
2022-07-27T10:35:36.668Z,1.77
2022-07-27T10:40:41.208Z,1.55
2022-07-27T10:46:00.796Z,1.40
2022-07-27T10:51:09.573Z,1.15
2022-07-27T10:56:13.369Z,0.98
2022-07-27T11:01:19.645Z,0.70
2022-07-27T11:06:36.326Z,0.60
2022-07-27T11:11:48.859Z,0.90
2022-07-27T11:16:55.859Z,0.40
2022-07-27T11:27:16.826Z,0.40
2022-07-27T11:32:22.579Z,0.60
2022-07-27T11:37:27.696Z,0.62
2022-07-27T11:42:38.325Z,0.70
2022-07-27T11:47:43.005Z,0.70
2022-07-27T11:53:01.282Z,0.80
2022-07-27T11:58:05.984Z,0.85
2022-07-27T12:03:20.495Z,0.80
2022-07-27T12:08:25.916Z,0.80
2022-07-27T12:13:33.541Z,0.90
2022-07-27T12:18:43.420Z,0.60
2022-07-27T12:23:52.789Z,0.73
2022-07-27T12:29:13.416Z,0.70
2022-07-27T12:34:17.612Z,0.88
2022-07-27T12:39:30.216Z,0.70
2022-07-27T12:44:35.148Z,0.82
2022-07-27T12:49:43.188Z,1.58
2022-07-27T12:54:51.275Z,1.00
2022-07-27T12:59:55.163Z,0.93
2022-07-27T13:04:58.934Z,0.77
2022-07-27T13:10:06.019Z,0.80
2022-07-27T13:15:10.608Z,0.70
2022-07-27T13:20:15.883Z,1.00
2022-07-27T13:25:21.611Z,0.82
2022-07-27T13:30:25.604Z,1.00
2022-07-27T13:35:29.485Z,0.90
2022-07-27T13:40:34.647Z,2.25
2022-07-27T13:45:43.188Z,1.20
2022-07-27T13:50:47.552Z,0.90
2022-07-27T13:55:52.741Z,0.88
2022-07-27T14:00:56.550Z,0.90
2022-07-27T14:06:00.823Z,0.90
2022-07-27T14:11:06.933Z,1.10
2022-07-27T14:16:11.307Z,0.70
2022-07-27T14:21:15.253Z,0.90
2022-07-27T14:26:22.246Z,0.70
2022-07-27T14:31:26.001Z,1.03
2022-07-27T14:36:30.114Z,0.80
2022-07-27T14:41:35.674Z,1.02
2022-07-27T14:46:39.471Z,1.02
2022-07-27T14:51:43.301Z,0.70
2022-07-27T14:56:48.380Z,0.90
2022-07-27T15:01:52.989Z,0.75
2022-07-27T15:06:58.361Z,0.68
2022-07-27T15:12:05.751Z,0.60
2022-07-27T15:17:09.472Z,0.70
2022-07-27T15:22:13.220Z,0.70
2022-07-27T15:27:18.257Z,0.50
2022-07-27T15:32:21.985Z,0.70
2022-07-27T15:37:27.142Z,0.68
2022-07-27T15:42:37.545Z,0.93
2022-07-27T15:47:41.578Z,1.10
2022-07-27T15:52:45.415Z,0.50
2022-07-27T15:57:50.498Z,0.55
2022-07-27T16:02:54.197Z,0.93
2022-07-27T16:07:58.338Z,0.60
2022-07-27T16:13:05.455Z,0.60
2022-07-27T16:18:09.215Z,0.62
2022-07-27T16:23:18.562Z,0.50
2022-07-27T16:28:28.736Z,1.00
2022-07-27T16:33:32.491Z,0.75
2022-07-27T16:38:36.473Z,0.55
2022-07-27T16:43:41.641Z,0.55
2022-07-27T16:48:45.834Z,1.02
2022-07-27T16:53:50.999Z,0.70
2022-07-27T16:58:56.045Z,0.68
2022-07-27T17:03:59.871Z,0.70
2022-07-27T17:09:03.788Z,0.62
2022-07-27T17:14:10.617Z,0.47
2022-07-27T17:19:15.915Z,0.80
2022-07-27T17:24:19.892Z,1.00
2022-07-27T17:29:25.018Z,0.75
2022-07-27T17:34:28.781Z,0.57
2022-07-27T17:39:32.615Z,0.40
2022-07-27T17:44:39.358Z,0.80
2022-07-27T17:49:43.826Z,0.40
2022-07-27T17:54:48.420Z,0.43
2022-07-27T17:59:53.473Z,0.50
2022-07-27T18:04:57.226Z,1.00
2022-07-27T18:10:00.998Z,0.60
2022-07-27T18:15:24.404Z,1.08
2022-07-27T18:20:28.375Z,0.52
2022-07-27T18:25:32.148Z,0.98
2022-07-27T18:30:37.694Z,0.55
2022-07-27T18:35:41.521Z,0.80
2022-07-27T18:40:47.008Z,0.60
2022-07-27T18:45:52.120Z,0.75
2022-07-27T18:50:56.059Z,0.70
2022-07-27T18:55:59.982Z,0.90
2022-07-27T19:01:05.187Z,0.62
2022-07-27T19:06:08.986Z,1.27
2022-07-27T19:11:12.864Z,1.10
2022-07-27T19:16:17.951Z,1.35
2022-07-27T19:21:21.688Z,1.30
2022-07-27T19:26:25.475Z,1.50
2022-07-27T19:31:30.700Z,0.98
2022-07-27T19:36:34.441Z,1.20
2022-07-27T19:41:38.253Z,1.25
2022-07-27T19:46:43.392Z,1.12
2022-07-27T19:51:47.207Z,1.60
2022-07-27T19:56:50.919Z,1.67
2022-07-27T20:01:56.172Z,1.50
2022-07-27T20:07:00.602Z,1.55
2022-07-27T20:12:05.047Z,1.85
2022-07-27T20:17:10.250Z,1.55
2022-07-27T20:22:14.046Z,1.50
2022-07-27T20:27:17.814Z,2.12
2022-07-27T20:32:22.934Z,2.25
2022-07-27T20:37:26.724Z,2.40
2022-07-27T20:42:30.539Z,1.95
2022-07-27T20:47:36.128Z,1.92
2022-07-27T20:52:40.778Z,1.10
2022-07-27T20:57:44.817Z,1.15
2022-07-27T21:02:49.969Z,1.42
2022-07-27T21:07:55.092Z,1.00
2022-07-27T21:12:58.857Z,1.17
2022-07-27T21:18:03.998Z,1.40
2022-07-27T21:23:25.294Z,1.58
2022-07-27T21:28:29.098Z,1.60
2022-07-27T21:33:39.389Z,1.83
2022-07-27T21:38:43.448Z,2.08
2022-07-27T21:43:47.224Z,1.77
2022-07-27T21:48:52.426Z,1.95
2022-07-27T21:53:56.798Z,1.80
2022-07-27T21:59:00.711Z,2.20
2022-07-27T22:04:06.232Z,1.45
2022-07-27T22:09:10.139Z,1.20
2022-07-27T22:14:14.121Z,1.00
2022-07-27T22:19:19.445Z,1.15
2022-07-27T22:24:23.353Z,0.95
2022-07-27T22:29:27.103Z,1.00
2022-07-27T22:34:32.229Z,1.55
2022-07-27T22:39:36.059Z,1.10
2022-07-27T22:44:43.115Z,1.30
2022-07-27T22:49:48.420Z,1.00
2022-07-27T22:54:52.193Z,1.40
2022-07-27T22:59:55.943Z,1.00
2022-07-27T23:05:02.712Z,1.10
2022-07-27T23:10:30.526Z,1.05
2022-07-27T23:15:34.628Z,0.95
2022-07-27T23:20:40.006Z,1.10
2022-07-27T23:25:43.684Z,0.70
2022-07-27T23:30:47.435Z,1.17
2022-07-27T23:35:52.539Z,1.00
2022-07-27T23:40:56.257Z,0.98
2022-07-27T23:46:00.003Z,1.10
2022-07-27T23:51:05.355Z,1.00
2022-07-27T23:56:09.040Z,0.80
